sensor_id;sensor_type;location;lat;lon;timestamp;temperature;humidity
3332;DHT22;1678;50.94845400;5.30809100;2022-09-01T00:01:47;18.40;59.00
3332;DHT22;1678;50.94845400;5.30809100;2022-09-01T00:04:22;18.40;59.10
3332;DHT22;1678;50.94845400;5.30809100;2022-09-01T00:06:53;18.40;59.10
3332;DHT22;1678;50.94845400;5.30809100;2022-09-01T00:09:22;18.30;59.40
3332;DHT22;1678;50.94845400;5.30809100;2022-09-01T00:11:52;18.30;59.70
3332;DHT22;1678;50.94845400;5.30809100;2022-09-01T00:14:25;18.30;60.00
3332;DHT22;1678;50.94845400;5.30809100;2022-09-01T00:16:57;18.20;59.10
3332;DHT22;1678;50.94845400;5.30809100;2022-09-01T00:19:26;18.20;59.70
3332;DHT22;1678;50.94845400;5.30809100;2022-09-01T00:21:55;18.20;59.80
3332;DHT22;1678;50.94845400;5.30809100;2022-09-01T00:24:24;18.10;60.50
3332;DHT22;1678;50.94845400;5.30809100;2022-09-01T00:26:52;18.00;60.50
3332;DHT22;1678;50.94845400;5.30809100;2022-09-01T00:29:22;18.00;61.50
3332;DHT22;1678;50.94845400;5.30809100;2022-09-01T00:31:51;18.00;61.50
3332;DHT22;1678;50.94845400;5.30809100;2022-09-01T00:34:19;17.90;60.90
3332;DHT22;1678;50.94845400;5.30809100;2022-09-01T00:36:48;17.90;61.60
3332;DHT22;1678;50.94845400;5.30809100;2022-09-01T00:39:16;17.90;62.20
3332;DHT22;1678;50.94845400;5.30809100;2022-09-01T00:41:44;17.80;62.70
3332;DHT22;1678;50.94845400;5.30809100;2022-09-01T00:44:15;17.80;62.40
3332;DHT22;1678;50.94845400;5.30809100;2022-09-01T00:46:48;17.80;62.60
3332;DHT22;1678;50.94845400;5.30809100;2022-09-01T00:49:25;17.80;62.80
3332;DHT22;1678;50.94845400;5.30809100;2022-09-01T00:52:06;17.70;62.80
3332;DHT22;1678;50.94845400;5.30809100;2022-09-01T00:54:37;17.60;63.30
3332;DHT22;1678;50.94845400;5.30809100;2022-09-01T00:57:07;17.60;63.50
3332;DHT22;1678;50.94845400;5.30809100;2022-09-01T00:59:39;17.60;63.80
3332;DHT22;1678;50.94845400;5.30809100;2022-09-01T01:02:11;17.50;64.10
3332;DHT22;1678;50.94845400;5.30809100;2022-09-01T01:04:40;17.50;64.40
3332;DHT22;1678;50.94845400;5.30809100;2022-09-01T01:07:10;17.40;65.00
3332;DHT22;1678;50.94845400;5.30809100;2022-09-01T01:09:41;17.40;64.30
3332;DHT22;1678;50.94845400;5.30809100;2022-09-01T01:12:10;17.40;64.00
3332;DHT22;1678;50.94845400;5.30809100;2022-09-01T01:14:44;17.30;64.80
3332;DHT22;1678;50.94845400;5.30809100;2022-09-01T01:17:19;17.20;65.10
3332;DHT22;1678;50.94845400;5.30809100;2022-09-01T01:19:49;17.30;65.40
3332;DHT22;1678;50.94845400;5.30809100;2022-09-01T01:22:42;17.20;65.30
3332;DHT22;1678;50.94845400;5.30809100;2022-09-01T01:25:36;17.20;65.80
3332;DHT22;1678;50.94845400;5.30809100;2022-09-01T01:28:08;17.10;66.10
3332;DHT22;1678;50.94845400;5.30809100;2022-09-01T01:30:39;17.10;66.30
3332;DHT22;1678;50.94845400;5.30809100;2022-09-01T01:33:07;17.10;66.40
3332;DHT22;1678;50.94845400;5.30809100;2022-09-01T01:35:37;17.10;67.00
3332;DHT22;1678;50.94845400;5.30809100;2022-09-01T01:38:05;17.10;66.60
3332;DHT22;1678;50.94845400;5.30809100;2022-09-01T01:40:36;17.10;66.80
3332;DHT22;1678;50.94845400;5.30809100;2022-09-01T01:43:05;16.90;68.30
3332;DHT22;1678;50.94845400;5.30809100;2022-09-01T01:45:33;16.90;67.90
3332;DHT22;1678;50.94845400;5.30809100;2022-09-01T01:48:02;16.80;68.00
3332;DHT22;1678;50.94845400;5.30809100;2022-09-01T01:50:33;16.80;68.20
3332;DHT22;1678;50.94845400;5.30809100;2022-09-01T01:53:04;16.80;68.30
3332;DHT22;1678;50.94845400;5.30809100;2022-09-01T01:55:40;16.80;68.70
3332;DHT22;1678;50.94845400;5.30809100;2022-09-01T01:58:09;16.80;68.80
3332;DHT22;1678;50.94845400;5.30809100;2022-09-01T02:00:38;16.80;69.00
3332;DHT22;1678;50.94845400;5.30809100;2022-09-01T02:03:08;16.80;69.00
3332;DHT22;1678;50.94845400;5.30809100;2022-09-01T02:05:39;16.70;69.30
3332;DHT22;1678;50.94845400;5.30809100;2022-09-01T02:08:08;16.70;70.20
3332;DHT22;1678;50.94845400;5.30809100;2022-09-01T02:10:42;16.70;70.10
3332;DHT22;1678;50.94845400;5.30809100;2022-09-01T02:13:13;16.60;70.10
3332;DHT22;1678;50.94845400;5.30809100;2022-09-01T02:15:44;16.60;70.40
3332;DHT22;1678;50.94845400;5.30809100;2022-09-01T02:18:15;16.50;71.60
3332;DHT22;1678;50.94845400;5.30809100;2022-09-01T02:20:45;16.40;72.20
3332;DHT22;1678;50.94845400;5.30809100;2022-09-01T02:23:15;16.40;72.90
3332;DHT22;1678;50.94845400;5.30809100;2022-09-01T02:25:52;16.40;72.80
3332;DHT22;1678;50.94845400;5.30809100;2022-09-01T02:28:42;16.40;73.20
3332;DHT22;1678;50.94845400;5.30809100;2022-09-01T02:31:11;16.40;73.00
3332;DHT22;1678;50.94845400;5.30809100;2022-09-01T02:33:40;16.40;74.80
3332;DHT22;1678;50.94845400;5.30809100;2022-09-01T02:36:14;16.30;75.40
3332;DHT22;1678;50.94845400;5.30809100;2022-09-01T02:38:43;16.30;75.70
3332;DHT22;1678;50.94845400;5.30809100;2022-09-01T02:41:14;16.20;75.20
3332;DHT22;1678;50.94845400;5.30809100;2022-09-01T02:43:48;16.10;77.50
3332;DHT22;1678;50.94845400;5.30809100;2022-09-01T02:46:17;16.00;77.30
3332;DHT22;1678;50.94845400;5.30809100;2022-09-01T02:48:50;15.90;78.60
3332;DHT22;1678;50.94845400;5.30809100;2022-09-01T02:51:20;16.00;78.40
3332;DHT22;1678;50.94845400;5.30809100;2022-09-01T02:53:52;16.00;78.20
3332;DHT22;1678;50.94845400;5.30809100;2022-09-01T02:56:24;16.00;79.20
3332;DHT22;1678;50.94845400;5.30809100;2022-09-01T02:58:54;15.90;79.10
3332;DHT22;1678;50.94845400;5.30809100;2022-09-01T03:01:23;15.90;80.00
3332;DHT22;1678;50.94845400;5.30809100;2022-09-01T03:03:53;15.90;79.70
3332;DHT22;1678;50.94845400;5.30809100;2022-09-01T03:06:22;15.80;79.70
3332;DHT22;1678;50.94845400;5.30809100;2022-09-01T03:08:52;15.80;79.90
3332;DHT22;1678;50.94845400;5.30809100;2022-09-01T03:11:21;15.70;80.10
3332;DHT22;1678;50.94845400;5.30809100;2022-09-01T03:13:51;15.70;80.80
3332;DHT22;1678;50.94845400;5.30809100;2022-09-01T03:16:20;15.70;81.10
3332;DHT22;1678;50.94845400;5.30809100;2022-09-01T03:18:49;15.60;81.90
3332;DHT22;1678;50.94845400;5.30809100;2022-09-01T03:21:18;15.60;84.20
3332;DHT22;1678;50.94845400;5.30809100;2022-09-01T03:23:47;15.40;85.60
3332;DHT22;1678;50.94845400;5.30809100;2022-09-01T03:26:17;15.30;87.40
3332;DHT22;1678;50.94845400;5.30809100;2022-09-01T03:28:48;15.40;87.00
3332;DHT22;1678;50.94845400;5.30809100;2022-09-01T03:31:19;15.40;87.00
3332;DHT22;1678;50.94845400;5.30809100;2022-09-01T03:33:47;15.30;87.40
3332;DHT22;1678;50.94845400;5.30809100;2022-09-01T03:36:16;15.30;88.00
3332;DHT22;1678;50.94845400;5.30809100;2022-09-01T03:38:46;15.20;88.30
3332;DHT22;1678;50.94845400;5.30809100;2022-09-01T03:41:17;15.20;88.50
3332;DHT22;1678;50.94845400;5.30809100;2022-09-01T03:43:48;15.20;90.60
3332;DHT22;1678;50.94845400;5.30809100;2022-09-01T03:46:18;15.10;91.00
3332;DHT22;1678;50.94845400;5.30809100;2022-09-01T03:48:48;15.10;91.40
3332;DHT22;1678;50.94845400;5.30809100;2022-09-01T03:51:18;15.00;92.90
3332;DHT22;1678;50.94845400;5.30809100;2022-09-01T03:53:49;15.00;92.80
3332;DHT22;1678;50.94845400;5.30809100;2022-09-01T03:56:21;15.00;93.20
3332;DHT22;1678;50.94845400;5.30809100;2022-09-01T03:58:52;15.00;93.20
3332;DHT22;1678;50.94845400;5.30809100;2022-09-01T04:01:24;15.10;93.70
3332;DHT22;1678;50.94845400;5.30809100;2022-09-01T04:03:53;15.10;93.80
3332;DHT22;1678;50.94845400;5.30809100;2022-09-01T04:06:21;15.10;95.20
3332;DHT22;1678;50.94845400;5.30809100;2022-09-01T04:08:51;15.00;95.50
3332;DHT22;1678;50.94845400;5.30809100;2022-09-01T04:11:23;15.10;95.70
3332;DHT22;1678;50.94845400;5.30809100;2022-09-01T04:13:52;15.20;93.90
3332;DHT22;1678;50.94845400;5.30809100;2022-09-01T04:16:25;15.20;93.50
3332;DHT22;1678;50.94845400;5.30809100;2022-09-01T04:19:12;15.20;93.40
3332;DHT22;1678;50.94845400;5.30809100;2022-09-01T04:21:46;15.20;93.30
3332;DHT22;1678;50.94845400;5.30809100;2022-09-01T04:24:16;15.20;93.00
3332;DHT22;1678;50.94845400;5.30809100;2022-09-01T04:26:46;15.30;93.10
3332;DHT22;1678;50.94845400;5.30809100;2022-09-01T04:29:15;15.30;92.70
3332;DHT22;1678;50.94845400;5.30809100;2022-09-01T04:31:46;15.30;92.80
3332;DHT22;1678;50.94845400;5.30809100;2022-09-01T04:34:18;15.30;92.70
3332;DHT22;1678;50.94845400;5.30809100;2022-09-01T04:36:46;15.30;92.50
3332;DHT22;1678;50.94845400;5.30809100;2022-09-01T04:39:17;15.20;92.60
3332;DHT22;1678;50.94845400;5.30809100;2022-09-01T04:41:45;15.20;92.50
3332;DHT22;1678;50.94845400;5.30809100;2022-09-01T04:44:16;15.20;93.20
3332;DHT22;1678;50.94845400;5.30809100;2022-09-01T04:46:46;15.10;93.80
3332;DHT22;1678;50.94845400;5.30809100;2022-09-01T04:49:17;15.10;94.10
3332;DHT22;1678;50.94845400;5.30809100;2022-09-01T04:51:49;15.00;94.30
3332;DHT22;1678;50.94845400;5.30809100;2022-09-01T04:54:20;15.00;94.70
3332;DHT22;1678;50.94845400;5.30809100;2022-09-01T04:56:49;14.90;95.50
3332;DHT22;1678;50.94845400;5.30809100;2022-09-01T04:59:20;14.90;96.10
3332;DHT22;1678;50.94845400;5.30809100;2022-09-01T05:01:50;14.90;96.50
3332;DHT22;1678;50.94845400;5.30809100;2022-09-01T05:04:21;14.80;97.40
3332;DHT22;1678;50.94845400;5.30809100;2022-09-01T05:06:51;14.80;96.90
3332;DHT22;1678;50.94845400;5.30809100;2022-09-01T05:09:21;14.80;96.80
3332;DHT22;1678;50.94845400;5.30809100;2022-09-01T05:11:51;14.80;97.00
3332;DHT22;1678;50.94845400;5.30809100;2022-09-01T05:14:19;14.90;96.90
3332;DHT22;1678;50.94845400;5.30809100;2022-09-01T05:16:51;14.90;96.90
3332;DHT22;1678;50.94845400;5.30809100;2022-09-01T05:19:22;14.90;97.10
3332;DHT22;1678;50.94845400;5.30809100;2022-09-01T05:21:54;14.90;96.70
3332;DHT22;1678;50.94845400;5.30809100;2022-09-01T05:24:23;14.90;97.00
3332;DHT22;1678;50.94845400;5.30809100;2022-09-01T05:26:58;14.90;96.80
3332;DHT22;1678;50.94845400;5.30809100;2022-09-01T05:29:26;14.90;97.20
3332;DHT22;1678;50.94845400;5.30809100;2022-09-01T05:31:57;15.00;97.40
3332;DHT22;1678;50.94845400;5.30809100;2022-09-01T05:34:26;15.10;97.20
3332;DHT22;1678;50.94845400;5.30809100;2022-09-01T05:36:58;15.10;97.10
3332;DHT22;1678;50.94845400;5.30809100;2022-09-01T05:39:26;15.20;96.60
3332;DHT22;1678;50.94845400;5.30809100;2022-09-01T05:41:55;15.20;96.40
3332;DHT22;1678;50.94845400;5.30809100;2022-09-01T05:44:23;15.30;96.50
3332;DHT22;1678;50.94845400;5.30809100;2022-09-01T05:46:52;15.40;96.40
3332;DHT22;1678;50.94845400;5.30809100;2022-09-01T05:49:22;15.50;95.40
3332;DHT22;1678;50.94845400;5.30809100;2022-09-01T05:51:52;15.60;95.10
3332;DHT22;1678;50.94845400;5.30809100;2022-09-01T05:54:24;15.60;94.50
3332;DHT22;1678;50.94845400;5.30809100;2022-09-01T05:56:54;15.70;93.90
3332;DHT22;1678;50.94845400;5.30809100;2022-09-01T05:59:43;15.80;93.30
3332;DHT22;1678;50.94845400;5.30809100;2022-09-01T06:02:14;15.80;94.80
3332;DHT22;1678;50.94845400;5.30809100;2022-09-01T06:04:44;15.90;93.50
3332;DHT22;1678;50.94845400;5.30809100;2022-09-01T06:07:14;16.00;92.90
3332;DHT22;1678;50.94845400;5.30809100;2022-09-01T06:09:45;16.10;92.60
3332;DHT22;1678;50.94845400;5.30809100;2022-09-01T06:12:14;16.20;91.90
3332;DHT22;1678;50.94845400;5.30809100;2022-09-01T06:14:51;16.40;90.70
3332;DHT22;1678;50.94845400;5.30809100;2022-09-01T06:17:21;16.50;90.60
3332;DHT22;1678;50.94845400;5.30809100;2022-09-01T06:19:53;16.60;89.50
3332;DHT22;1678;50.94845400;5.30809100;2022-09-01T06:22:23;16.80;88.30
3332;DHT22;1678;50.94845400;5.30809100;2022-09-01T06:24:51;16.90;87.70
3332;DHT22;1678;50.94845400;5.30809100;2022-09-01T06:27:23;17.00;86.90
3332;DHT22;1678;50.94845400;5.30809100;2022-09-01T06:29:52;17.10;86.10
3332;DHT22;1678;50.94845400;5.30809100;2022-09-01T06:32:21;17.20;85.30
3332;DHT22;1678;50.94845400;5.30809100;2022-09-01T06:34:53;17.30;85.00
3332;DHT22;1678;50.94845400;5.30809100;2022-09-01T06:37:24;17.30;84.10
3332;DHT22;1678;50.94845400;5.30809100;2022-09-01T06:39:52;17.50;83.80
3332;DHT22;1678;50.94845400;5.30809100;2022-09-01T06:42:21;17.60;82.80
3332;DHT22;1678;50.94845400;5.30809100;2022-09-01T06:44:50;17.70;83.30
3332;DHT22;1678;50.94845400;5.30809100;2022-09-01T06:47:18;17.80;81.40
3332;DHT22;1678;50.94845400;5.30809100;2022-09-01T06:49:46;17.80;80.60
3332;DHT22;1678;50.94845400;5.30809100;2022-09-01T06:52:21;18.00;80.70
3332;DHT22;1678;50.94845400;5.30809100;2022-09-01T06:54:50;18.10;80.00
3332;DHT22;1678;50.94845400;5.30809100;2022-09-01T06:57:20;18.20;77.10
3332;DHT22;1678;50.94845400;5.30809100;2022-09-01T07:00:11;18.30;78.00
3332;DHT22;1678;50.94845400;5.30809100;2022-09-01T07:02:45;18.40;76.50
3332;DHT22;1678;50.94845400;5.30809100;2022-09-01T07:05:15;18.40;75.20
3332;DHT22;1678;50.94845400;5.30809100;2022-09-01T07:08:10;18.60;76.30
3332;DHT22;1678;50.94845400;5.30809100;2022-09-01T07:10:40;18.70;74.90
3332;DHT22;1678;50.94845400;5.30809100;2022-09-01T07:13:31;18.80;71.00
3332;DHT22;1678;50.94845400;5.30809100;2022-09-01T07:16:01;18.70;70.00
3332;DHT22;1678;50.94845400;5.30809100;2022-09-01T07:18:54;18.80;70.00
3332;DHT22;1678;50.94845400;5.30809100;2022-09-01T07:21:26;18.90;71.20
3332;DHT22;1678;50.94845400;5.30809100;2022-09-01T07:24:09;19.00;67.80
3332;DHT22;1678;50.94845400;5.30809100;2022-09-01T07:26:38;19.10;68.50
3332;DHT22;1678;50.94845400;5.30809100;2022-09-01T07:29:15;19.20;66.50
3332;DHT22;1678;50.94845400;5.30809100;2022-09-01T07:31:47;19.20;66.60
3332;DHT22;1678;50.94845400;5.30809100;2022-09-01T07:34:36;19.30;65.80
3332;DHT22;1678;50.94845400;5.30809100;2022-09-01T07:37:05;19.30;65.80
3332;DHT22;1678;50.94845400;5.30809100;2022-09-01T07:39:55;19.40;63.80
3332;DHT22;1678;50.94845400;5.30809100;2022-09-01T07:42:44;19.50;64.10
3332;DHT22;1678;50.94845400;5.30809100;2022-09-01T07:45:28;19.60;63.20
3332;DHT22;1678;50.94845400;5.30809100;2022-09-01T07:47:57;19.70;63.20
3332;DHT22;1678;50.94845400;5.30809100;2022-09-01T07:50:33;19.70;61.80
3332;DHT22;1678;50.94845400;5.30809100;2022-09-01T07:53:23;19.90;62.80
3332;DHT22;1678;50.94845400;5.30809100;2022-09-01T07:55:54;20.10;63.00
3332;DHT22;1678;50.94845400;5.30809100;2022-09-01T07:58:24;20.20;61.40
3332;DHT22;1678;50.94845400;5.30809100;2022-09-01T08:00:53;20.30;60.50
3332;DHT22;1678;50.94845400;5.30809100;2022-09-01T08:03:23;20.30;59.80
3332;DHT22;1678;50.94845400;5.30809100;2022-09-01T08:05:52;20.40;59.30
3332;DHT22;1678;50.94845400;5.30809100;2022-09-01T08:08:23;20.40;58.90
3332;DHT22;1678;50.94845400;5.30809100;2022-09-01T08:10:56;20.40;58.50
3332;DHT22;1678;50.94845400;5.30809100;2022-09-01T08:13:32;20.60;60.10
3332;DHT22;1678;50.94845400;5.30809100;2022-09-01T08:16:08;20.80;58.70
3332;DHT22;1678;50.94845400;5.30809100;2022-09-01T08:18:45;20.80;57.30
3332;DHT22;1678;50.94845400;5.30809100;2022-09-01T08:21:16;20.80;56.30
3332;DHT22;1678;50.94845400;5.30809100;2022-09-01T08:23:45;20.90;56.30
3332;DHT22;1678;50.94845400;5.30809100;2022-09-01T08:26:17;20.90;56.20
3332;DHT22;1678;50.94845400;5.30809100;2022-09-01T08:28:45;21.00;56.90
3332;DHT22;1678;50.94845400;5.30809100;2022-09-01T08:31:21;21.10;55.80
3332;DHT22;1678;50.94845400;5.30809100;2022-09-01T08:33:50;21.20;56.00
3332;DHT22;1678;50.94845400;5.30809100;2022-09-01T08:36:19;21.20;54.90
3332;DHT22;1678;50.94845400;5.30809100;2022-09-01T08:38:51;21.20;54.00
3332;DHT22;1678;50.94845400;5.30809100;2022-09-01T08:41:31;21.10;54.80
3332;DHT22;1678;50.94845400;5.30809100;2022-09-01T08:44:07;21.20;54.80
3332;DHT22;1678;50.94845400;5.30809100;2022-09-01T08:46:40;21.30;53.30
3332;DHT22;1678;50.94845400;5.30809100;2022-09-01T08:49:14;21.20;52.90
3332;DHT22;1678;50.94845400;5.30809100;2022-09-01T08:51:56;21.40;52.80
3332;DHT22;1678;50.94845400;5.30809100;2022-09-01T08:54:31;21.50;51.70
3332;DHT22;1678;50.94845400;5.30809100;2022-09-01T08:57:07;21.50;50.90
3332;DHT22;1678;50.94845400;5.30809100;2022-09-01T08:59:36;21.60;50.90
3332;DHT22;1678;50.94845400;5.30809100;2022-09-01T09:02:18;21.80;50.90
3332;DHT22;1678;50.94845400;5.30809100;2022-09-01T09:04:55;21.80;48.70
3332;DHT22;1678;50.94845400;5.30809100;2022-09-01T09:07:37;22.00;51.10
3332;DHT22;1678;50.94845400;5.30809100;2022-09-01T09:10:11;22.20;48.70
3332;DHT22;1678;50.94845400;5.30809100;2022-09-01T09:12:52;22.40;49.00
3332;DHT22;1678;50.94845400;5.30809100;2022-09-01T09:15:27;22.50;46.70
3332;DHT22;1678;50.94845400;5.30809100;2022-09-01T09:18:09;22.60;46.80
3332;DHT22;1678;50.94845400;5.30809100;2022-09-01T09:20:56;22.70;46.70
3332;DHT22;1678;50.94845400;5.30809100;2022-09-01T09:23:33;22.80;46.20
3332;DHT22;1678;50.94845400;5.30809100;2022-09-01T09:26:03;23.00;44.60
3332;DHT22;1678;50.94845400;5.30809100;2022-09-01T09:28:35;23.00;42.70
3332;DHT22;1678;50.94845400;5.30809100;2022-09-01T09:31:25;22.90;42.50
3332;DHT22;1678;50.94845400;5.30809100;2022-09-01T09:33:54;22.90;41.80
3332;DHT22;1678;50.94845400;5.30809100;2022-09-01T09:36:30;22.90;42.00
3332;DHT22;1678;50.94845400;5.30809100;2022-09-01T09:39:09;23.00;43.00
3332;DHT22;1678;50.94845400;5.30809100;2022-09-01T09:41:38;23.00;42.50
3332;DHT22;1678;50.94845400;5.30809100;2022-09-01T09:44:18;23.20;42.70
3332;DHT22;1678;50.94845400;5.30809100;2022-09-01T09:46:48;23.20;39.40
3332;DHT22;1678;50.94845400;5.30809100;2022-09-01T09:49:19;23.00;39.90
3332;DHT22;1678;50.94845400;5.30809100;2022-09-01T09:52:14;23.20;41.10
3332;DHT22;1678;50.94845400;5.30809100;2022-09-01T09:54:59;23.20;38.40
3332;DHT22;1678;50.94845400;5.30809100;2022-09-01T09:57:29;23.10;39.60
3332;DHT22;1678;50.94845400;5.30809100;2022-09-01T10:00:03;23.30;39.30
3332;DHT22;1678;50.94845400;5.30809100;2022-09-01T10:02:34;23.50;39.00
3332;DHT22;1678;50.94845400;5.30809100;2022-09-01T10:05:24;23.50;37.30
3332;DHT22;1678;50.94845400;5.30809100;2022-09-01T10:07:54;23.40;38.50
3332;DHT22;1678;50.94845400;5.30809100;2022-09-01T10:10:28;23.50;38.70
3332;DHT22;1678;50.94845400;5.30809100;2022-09-01T10:12:58;23.70;38.70
3332;DHT22;1678;50.94845400;5.30809100;2022-09-01T10:15:31;23.90;38.80
3332;DHT22;1678;50.94845400;5.30809100;2022-09-01T10:18:05;23.70;38.30
3332;DHT22;1678;50.94845400;5.30809100;2022-09-01T10:20:57;23.70;37.60
3332;DHT22;1678;50.94845400;5.30809100;2022-09-01T10:23:28;23.80;38.60
3332;DHT22;1678;50.94845400;5.30809100;2022-09-01T10:26:01;24.00;36.50
3332;DHT22;1678;50.94845400;5.30809100;2022-09-01T10:28:33;23.90;37.20
3332;DHT22;1678;50.94845400;5.30809100;2022-09-01T10:31:05;24.10;36.00
3332;DHT22;1678;50.94845400;5.30809100;2022-09-01T10:33:35;24.20;35.80
3332;DHT22;1678;50.94845400;5.30809100;2022-09-01T10:36:05;24.30;35.40
3332;DHT22;1678;50.94845400;5.30809100;2022-09-01T10:38:34;24.60;35.70
3332;DHT22;1678;50.94845400;5.30809100;2022-09-01T10:41:05;24.80;35.70
3332;DHT22;1678;50.94845400;5.30809100;2022-09-01T10:43:42;24.70;35.40
3332;DHT22;1678;50.94845400;5.30809100;2022-09-01T10:46:43;24.30;35.80
3332;DHT22;1678;50.94845400;5.30809100;2022-09-01T10:52:53;24.60;33.80
3332;DHT22;1678;50.94845400;5.30809100;2022-09-01T10:55:24;24.80;34.40
3332;DHT22;1678;50.94845400;5.30809100;2022-09-01T11:05:18;24.90;31.70
3332;DHT22;1678;50.94845400;5.30809100;2022-09-01T11:07:46;24.90;28.70
3332;DHT22;1678;50.94845400;5.30809100;2022-09-01T11:10:44;24.90;26.40
3332;DHT22;1678;50.94845400;5.30809100;2022-09-01T11:13:38;25.00;27.70
3332;DHT22;1678;50.94845400;5.30809100;2022-09-01T11:16:31;25.20;27.40
3332;DHT22;1678;50.94845400;5.30809100;2022-09-01T11:19:38;25.40;27.60
3332;DHT22;1678;50.94845400;5.30809100;2022-09-01T11:30:55;25.80;24.90
3332;DHT22;1678;50.94845400;5.30809100;2022-09-01T11:33:35;26.00;25.80
3332;DHT22;1678;50.94845400;5.30809100;2022-09-01T11:36:12;26.20;25.60
3332;DHT22;1678;50.94845400;5.30809100;2022-09-01T11:38:48;26.10;25.70
3332;DHT22;1678;50.94845400;5.30809100;2022-09-01T11:41:22;26.00;24.10
3332;DHT22;1678;50.94845400;5.30809100;2022-09-01T11:43:54;25.80;23.90
3332;DHT22;1678;50.94845400;5.30809100;2022-09-01T11:46:26;26.00;25.40
3332;DHT22;1678;50.94845400;5.30809100;2022-09-01T11:48:57;26.40;25.20
3332;DHT22;1678;50.94845400;5.30809100;2022-09-01T11:51:26;26.10;23.20
3332;DHT22;1678;50.94845400;5.30809100;2022-09-01T11:53:59;26.00;24.60
3332;DHT22;1678;50.94845400;5.30809100;2022-09-01T11:56:28;26.00;24.20
3332;DHT22;1678;50.94845400;5.30809100;2022-09-01T11:58:56;26.00;24.60
3332;DHT22;1678;50.94845400;5.30809100;2022-09-01T12:01:31;25.70;24.20
3332;DHT22;1678;50.94845400;5.30809100;2022-09-01T12:04:18;26.10;24.50
3332;DHT22;1678;50.94845400;5.30809100;2022-09-01T12:06:54;26.50;23.50
3332;DHT22;1678;50.94845400;5.30809100;2022-09-01T12:09:35;26.50;23.10
3332;DHT22;1678;50.94845400;5.30809100;2022-09-01T12:12:05;26.40;23.50
3332;DHT22;1678;50.94845400;5.30809100;2022-09-01T12:14:33;26.40;22.90
3332;DHT22;1678;50.94845400;5.30809100;2022-09-01T12:17:21;26.20;23.80
3332;DHT22;1678;50.94845400;5.30809100;2022-09-01T12:19:49;26.00;23.40
3332;DHT22;1678;50.94845400;5.30809100;2022-09-01T12:22:19;26.10;23.70
3332;DHT22;1678;50.94845400;5.30809100;2022-09-01T12:24:51;26.40;23.50
3332;DHT22;1678;50.94845400;5.30809100;2022-09-01T12:27:20;26.80;23.80
3332;DHT22;1678;50.94845400;5.30809100;2022-09-01T12:29:50;27.00;22.20
3332;DHT22;1678;50.94845400;5.30809100;2022-09-01T12:32:18;27.00;21.60
3332;DHT22;1678;50.94845400;5.30809100;2022-09-01T12:34:58;26.40;22.70
3332;DHT22;1678;50.94845400;5.30809100;2022-09-01T12:37:30;26.40;22.30
3332;DHT22;1678;50.94845400;5.30809100;2022-09-01T12:39:59;26.70;22.10
3332;DHT22;1678;50.94845400;5.30809100;2022-09-01T12:42:29;26.80;22.00
3332;DHT22;1678;50.94845400;5.30809100;2022-09-01T12:45:09;27.00;22.80
3332;DHT22;1678;50.94845400;5.30809100;2022-09-01T12:47:49;27.00;20.40
3332;DHT22;1678;50.94845400;5.30809100;2022-09-01T12:50:35;27.20;21.90
3332;DHT22;1678;50.94845400;5.30809100;2022-09-01T12:53:20;27.30;21.70
3332;DHT22;1678;50.94845400;5.30809100;2022-09-01T12:56:19;27.30;21.10
3332;DHT22;1678;50.94845400;5.30809100;2022-09-01T12:58:50;27.40;19.90
3332;DHT22;1678;50.94845400;5.30809100;2022-09-01T13:01:26;27.10;19.10
3332;DHT22;1678;50.94845400;5.30809100;2022-09-01T13:04:11;27.20;19.60
3332;DHT22;1678;50.94845400;5.30809100;2022-09-01T13:06:40;27.50;19.20
3332;DHT22;1678;50.94845400;5.30809100;2022-09-01T13:09:08;27.50;19.20
3332;DHT22;1678;50.94845400;5.30809100;2022-09-01T13:11:38;27.60;18.70
3332;DHT22;1678;50.94845400;5.30809100;2022-09-01T13:14:27;27.20;18.90
3332;DHT22;1678;50.94845400;5.30809100;2022-09-01T13:16:57;27.10;19.60
3332;DHT22;1678;50.94845400;5.30809100;2022-09-01T13:19:25;27.20;19.60
3332;DHT22;1678;50.94845400;5.30809100;2022-09-01T13:21:56;27.50;19.60
3332;DHT22;1678;50.94845400;5.30809100;2022-09-01T13:24:24;27.30;20.00
3332;DHT22;1678;50.94845400;5.30809100;2022-09-01T13:26:58;27.60;19.90
3332;DHT22;1678;50.94845400;5.30809100;2022-09-01T13:29:47;27.70;20.00
3332;DHT22;1678;50.94845400;5.30809100;2022-09-01T13:32:16;27.90;19.50
3332;DHT22;1678;50.94845400;5.30809100;2022-09-01T13:34:48;27.70;20.00
3332;DHT22;1678;50.94845400;5.30809100;2022-09-01T13:37:18;27.50;19.90
3332;DHT22;1678;50.94845400;5.30809100;2022-09-01T13:39:46;27.50;20.10
3332;DHT22;1678;50.94845400;5.30809100;2022-09-01T13:42:16;27.90;19.90
3332;DHT22;1678;50.94845400;5.30809100;2022-09-01T13:44:45;27.70;19.30
3332;DHT22;1678;50.94845400;5.30809100;2022-09-01T13:47:15;27.50;20.00
3332;DHT22;1678;50.94845400;5.30809100;2022-09-01T13:49:59;27.70;19.40
3332;DHT22;1678;50.94845400;5.30809100;2022-09-01T13:52:34;27.80;18.20
3332;DHT22;1678;50.94845400;5.30809100;2022-09-01T13:55:02;27.90;18.10
3332;DHT22;1678;50.94845400;5.30809100;2022-09-01T13:57:32;27.90;17.90
3332;DHT22;1678;50.94845400;5.30809100;2022-09-01T14:00:04;28.30;17.90
3332;DHT22;1678;50.94845400;5.30809100;2022-09-01T14:02:33;28.40;18.30
3332;DHT22;1678;50.94845400;5.30809100;2022-09-01T14:05:03;28.70;18.20
3332;DHT22;1678;50.94845400;5.30809100;2022-09-01T14:07:31;28.80;17.10
3332;DHT22;1678;50.94845400;5.30809100;2022-09-01T14:09:59;28.70;17.30
3332;DHT22;1678;50.94845400;5.30809100;2022-09-01T14:12:27;28.80;17.60
3332;DHT22;1678;50.94845400;5.30809100;2022-09-01T14:14:57;29.10;16.40
3332;DHT22;1678;50.94845400;5.30809100;2022-09-01T14:17:46;29.30;16.60
3332;DHT22;1678;50.94845400;5.30809100;2022-09-01T14:20:16;29.70;16.50
3332;DHT22;1678;50.94845400;5.30809100;2022-09-01T14:22:45;30.00;16.80
3332;DHT22;1678;50.94845400;5.30809100;2022-09-01T14:25:14;30.20;16.20
3332;DHT22;1678;50.94845400;5.30809100;2022-09-01T14:27:42;29.80;15.90
3332;DHT22;1678;50.94845400;5.30809100;2022-09-01T14:30:19;29.90;16.70
3332;DHT22;1678;50.94845400;5.30809100;2022-09-01T14:32:48;30.70;15.60
3332;DHT22;1678;50.94845400;5.30809100;2022-09-01T14:35:19;30.30;15.50
3332;DHT22;1678;50.94845400;5.30809100;2022-09-01T14:37:50;30.40;15.40
3332;DHT22;1678;50.94845400;5.30809100;2022-09-01T14:40:19;30.30;15.40